Airfield :







YOU CAN JOIN US ON...

 
LOGIN :

Register | Disclaimer

   EN    FR    IT 

 









Legend :    VFR   Marginal VFR   IFR   Intensive IFR   Very Intensive IFR
Visi :
Ceiling :
>= 8 km
>= 3000ft
5 to 8 km
1000 to 3000 ft
1500m to 5 km
500 to 1000 ft
800 to 1500m
200 to 500 ft
< 800m
< 200 ft
Symbols :   Thunderstorms  Fog  Heavy snow  Heavy precipitations  Wind > 20 kt







- Airport Elevation : 90 ft
- IATA code : YHU


CYHU - Montréal Saint-Hubert

CURRENT METAR :
  • 211000Z AUTO 19008KT 9SM OVC085 03/M03 A3007 RMK SLP187

EXPIRED METARs :
  • 210900Z AUTO 19008KT 9SM BKN130 BKN150 02/M04 A3008 RMK SLP190
  • 210800Z AUTO 15005KT 9SM FEW120 BKN150 00/M04 A3009 RMK SLP192
  • 210700Z AUTO 13005KT 9SM SCT140 SCT160 BKN180 01/M04 A3010 RMK SLP197

TAF TAF CYHU
Valid from the 21 at 06:00 until the 22 at 06:00 UTC


210538Z 2106/2206 VRB03KT P6SM SCT120 BKN160
FM210900 17008KT P6SM SCT060 OVC100
TEMPO 2112/2115 6SM -SNRA BKN030 OVC060
FM211500 17010G20KT P6SM BKN030 OVC100
TEMPO 2115/2124 P6SM -RA
FM220000 17018G28KT P6SM -RA OVC030
FM220200 17018G28KT 3SM -RA BR SCT008 OVC025
PROB30 2202/2206 21/2SM -RA BR BKN008 OVC020 RMK FCST BASED ON AUTO OBS. NXT FCST BY 211200Z
CZUL FIR / North America



MET'MAP, your aeronautical weather chart ! - Copyright ORBIFLY December 2007 - Disclaimer

ORBIFLY MET'MAP TEAM :

Programming & Development : Alexandra Zaïnal
Concept & Development : Baudouin d'Aumeries
Co-Development & Prog : Marc-Olivier Méhu
Technical & hardware support : Manuel Goepfert

Contact : metmap@orbifly.com




SOURCES & CREDITS :

   NOAA